sensor_id;sensor_type;location;lat;lon;timestamp;noise_LAeq;noise_LA_min;noise_LA_max;noise_LA01;noise_LA95
61321;Laerm;17737;52.586;13.284;2023-02-28T00:01:29;52.17;50.98;54.50;;
61321;Laerm;17737;52.586;13.284;2023-02-28T00:03:58;52.64;50.88;67.19;;
61321;Laerm;17737;52.586;13.284;2023-02-28T00:06:28;53.60;51.05;65.25;;
61321;Laerm;17737;52.586;13.284;2023-02-28T00:08:56;52.16;50.97;55.40;;
61321;Laerm;17737;52.586;13.284;2023-02-28T00:11:24;52.18;50.98;55.95;;
61321;Laerm;17737;52.586;13.284;2023-02-28T00:13:52;52.17;50.79;55.77;;
61321;Laerm;17737;52.586;13.284;2023-02-28T00:16:22;52.34;51.05;55.29;;
61321;Laerm;17737;52.586;13.284;2023-02-28T00:18:50;52.18;50.90;55.06;;
61321;Laerm;17737;52.586;13.284;2023-02-28T00:21:19;52.18;50.97;54.83;;
61321;Laerm;17737;52.586;13.284;2023-02-28T00:23:49;52.18;50.82;53.36;;
61321;Laerm;17737;52.586;13.284;2023-02-28T00:26:17;52.21;50.89;67.45;;
61321;Laerm;17737;52.586;13.284;2023-02-28T00:28:47;52.19;51.10;55.91;;
61321;Laerm;17737;52.586;13.284;2023-02-28T00:31:16;52.21;50.91;67.47;;
61321;Laerm;17737;52.586;13.284;2023-02-28T00:33:44;52.84;50.84;60.21;;
61321;Laerm;17737;52.586;13.284;2023-02-28T00:36:12;52.18;50.80;56.19;;
61321;Laerm;17737;52.586;13.284;2023-02-28T00:38:40;52.18;50.97;55.42;;
61321;Laerm;17737;52.586;13.284;2023-02-28T00:41:10;52.21;50.98;68.24;;
61321;Laerm;17737;52.586;13.284;2023-02-28T00:43:39;52.17;50.88;53.25;;
61321;Laerm;17737;52.586;13.284;2023-02-28T00:46:08;52.32;51.07;55.73;;
61321;Laerm;17737;52.586;13.284;2023-02-28T00:48:36;52.23;51.03;68.88;;
61321;Laerm;17737;52.586;13.284;2023-02-28T00:51:05;52.22;50.95;68.01;;
61321;Laerm;17737;52.586;13.284;2023-02-28T00:53:33;52.20;50.85;67.86;;
61321;Laerm;17737;52.586;13.284;2023-02-28T00:56:01;52.60;50.80;59.10;;
61321;Laerm;17737;52.586;13.284;2023-02-28T00:58:30;52.19;50.70;56.35;;
61321;Laerm;17737;52.586;13.284;2023-02-28T01:00:58;52.23;50.71;68.03;;
61321;Laerm;17737;52.586;13.284;2023-02-28T01:03:26;52.19;51.12;56.11;;
61321;Laerm;17737;52.586;13.284;2023-02-28T01:05:55;52.21;50.73;66.93;;
61321;Laerm;17737;52.586;13.284;2023-02-28T01:08:23;52.19;51.06;55.24;;
61321;Laerm;17737;52.586;13.284;2023-02-28T01:10:52;52.20;51.00;53.46;;
61321;Laerm;17737;52.586;13.284;2023-02-28T01:13:20;52.59;50.97;57.90;;
61321;Laerm;17737;52.586;13.284;2023-02-28T01:15:55;52.93;50.95;66.06;;
61321;Laerm;17737;52.586;13.284;2023-02-28T01:18:23;53.52;50.68;62.31;;
61321;Laerm;17737;52.586;13.284;2023-02-28T01:20:52;52.22;50.90;68.04;;
61321;Laerm;17737;52.586;13.284;2023-02-28T01:23:21;52.19;50.77;55.57;;
61321;Laerm;17737;52.586;13.284;2023-02-28T01:25:50;52.19;50.90;55.69;;
61321;Laerm;17737;52.586;13.284;2023-02-28T01:28:18;53.87;50.97;65.18;;
61321;Laerm;17737;52.586;13.284;2023-02-28T01:30:48;52.55;50.99;68.27;;
61321;Laerm;17737;52.586;13.284;2023-02-28T01:33:18;52.99;51.03;60.33;;
61321;Laerm;17737;52.586;13.284;2023-02-28T01:35:45;52.41;50.83;68.64;;
61321;Laerm;17737;52.586;13.284;2023-02-28T01:38:14;52.18;50.84;55.42;;
61321;Laerm;17737;52.586;13.284;2023-02-28T01:40:51;52.19;50.76;55.72;;
61321;Laerm;17737;52.586;13.284;2023-02-28T01:43:24;52.19;50.96;54.96;;
61321;Laerm;17737;52.586;13.284;2023-02-28T01:45:54;52.20;50.93;55.28;;
61321;Laerm;17737;52.586;13.284;2023-02-28T01:48:28;52.37;51.06;57.03;;
61321;Laerm;17737;52.586;13.284;2023-02-28T01:51:04;52.19;50.89;55.29;;
61321;Laerm;17737;52.586;13.284;2023-02-28T01:53:39;52.19;51.04;55.37;;
61321;Laerm;17737;52.586;13.284;2023-02-28T01:56:14;52.19;51.00;55.71;;
61321;Laerm;17737;52.586;13.284;2023-02-28T01:58:47;52.21;50.89;56.10;;
61321;Laerm;17737;52.586;13.284;2023-02-28T02:01:15;52.25;50.66;67.25;;
61321;Laerm;17737;52.586;13.284;2023-02-28T02:03:51;52.20;50.94;55.64;;
61321;Laerm;17737;52.586;13.284;2023-02-28T02:06:25;53.74;51.07;64.56;;
61321;Laerm;17737;52.586;13.284;2023-02-28T02:08:53;52.75;50.95;60.22;;
61321;Laerm;17737;52.586;13.284;2023-02-28T02:11:24;52.20;51.06;55.19;;
61321;Laerm;17737;52.586;13.284;2023-02-28T02:14:26;53.47;50.87;66.51;;
61321;Laerm;17737;52.586;13.284;2023-02-28T02:17:20;52.18;50.84;55.61;;
61321;Laerm;17737;52.586;13.284;2023-02-28T02:23:49;52.21;51.06;67.11;;
61321;Laerm;17737;52.586;13.284;2023-02-28T02:26:55;52.20;50.94;55.90;;
61321;Laerm;17737;52.586;13.284;2023-02-28T02:30:19;52.19;51.05;56.03;;
61321;Laerm;17737;52.586;13.284;2023-02-28T02:33:48;52.19;50.95;55.26;;
61321;Laerm;17737;52.586;13.284;2023-02-28T02:36:24;52.20;50.85;55.45;;
61321;Laerm;17737;52.586;13.284;2023-02-28T02:39:00;52.22;50.80;55.86;;
61321;Laerm;17737;52.586;13.284;2023-02-28T02:41:38;52.23;51.03;55.83;;
61321;Laerm;17737;52.586;13.284;2023-02-28T02:44:18;54.41;50.85;67.35;;
61321;Laerm;17737;52.586;13.284;2023-02-28T02:46:54;52.47;50.99;59.13;;
61321;Laerm;17737;52.586;13.284;2023-02-28T02:49:31;52.46;50.98;57.48;;
61321;Laerm;17737;52.586;13.284;2023-02-28T02:52:06;52.21;50.96;55.84;;
61321;Laerm;17737;52.586;13.284;2023-02-28T02:54:40;52.22;51.06;55.31;;
61321;Laerm;17737;52.586;13.284;2023-02-28T02:57:15;52.34;50.46;55.71;;
61321;Laerm;17737;52.586;13.284;2023-02-28T02:59:47;52.22;51.02;56.18;;
61321;Laerm;17737;52.586;13.284;2023-02-28T03:02:18;52.20;51.05;56.37;;
61321;Laerm;17737;52.586;13.284;2023-02-28T03:04:53;52.20;50.66;55.55;;
61321;Laerm;17737;52.586;13.284;2023-02-28T03:07:28;52.23;51.02;67.00;;
61321;Laerm;17737;52.586;13.284;2023-02-28T03:09:57;52.25;51.02;68.92;;
61321;Laerm;17737;52.586;13.284;2023-02-28T03:12:41;52.25;51.05;69.36;;
61321;Laerm;17737;52.586;13.284;2023-02-28T03:15:26;53.47;51.12;63.54;;
61321;Laerm;17737;52.586;13.284;2023-02-28T03:18:04;52.25;51.10;56.08;;
61321;Laerm;17737;52.586;13.284;2023-02-28T03:20:45;52.26;51.13;55.78;;
61321;Laerm;17737;52.586;13.284;2023-02-28T03:23:19;52.20;50.98;53.68;;
61321;Laerm;17737;52.586;13.284;2023-02-28T03:25:59;54.05;51.05;67.73;;
61321;Laerm;17737;52.586;13.284;2023-02-28T03:28:39;52.46;51.20;56.99;;
61321;Laerm;17737;52.586;13.284;2023-02-28T03:31:18;53.03;50.99;59.56;;
61321;Laerm;17737;52.586;13.284;2023-02-28T03:33:53;52.19;50.89;56.26;;
61321;Laerm;17737;52.586;13.284;2023-02-28T03:36:27;52.73;50.99;57.92;;
61321;Laerm;17737;52.586;13.284;2023-02-28T03:39:03;52.47;50.94;57.58;;
61321;Laerm;17737;52.586;13.284;2023-02-28T03:41:39;52.23;51.08;56.30;;
61321;Laerm;17737;52.586;13.284;2023-02-28T03:44:14;53.53;50.81;66.55;;
61321;Laerm;17737;52.586;13.284;2023-02-28T03:46:56;53.31;51.06;59.78;;
61321;Laerm;17737;52.586;13.284;2023-02-28T03:49:32;52.54;50.94;58.41;;
61321;Laerm;17737;52.586;13.284;2023-02-28T03:52:06;53.40;51.06;63.37;;
61321;Laerm;17737;52.586;13.284;2023-02-28T03:54:44;53.24;51.09;60.28;;
61321;Laerm;17737;52.586;13.284;2023-02-28T03:57:25;52.20;50.77;55.57;;
61321;Laerm;17737;52.586;13.284;2023-02-28T03:59:59;53.94;51.10;64.19;;
61321;Laerm;17737;52.586;13.284;2023-02-28T04:02:30;52.63;50.84;57.98;;
61321;Laerm;17737;52.586;13.284;2023-02-28T04:05:00;52.89;51.18;59.65;;
61321;Laerm;17737;52.586;13.284;2023-02-28T04:07:29;53.75;51.22;66.16;;
61321;Laerm;17737;52.586;13.284;2023-02-28T04:09:58;54.09;51.13;62.39;;
61321;Laerm;17737;52.586;13.284;2023-02-28T04:12:27;53.35;51.02;59.21;;
61321;Laerm;17737;52.586;13.284;2023-02-28T04:14:54;53.16;51.18;58.36;;
61321;Laerm;17737;52.586;13.284;2023-02-28T04:17:22;53.54;51.24;59.64;;
61321;Laerm;17737;52.586;13.284;2023-02-28T04:19:50;53.33;51.19;62.70;;
61321;Laerm;17737;52.586;13.284;2023-02-28T04:22:18;53.69;51.16;63.04;;
61321;Laerm;17737;52.586;13.284;2023-02-28T04:24:46;54.31;51.25;61.17;;
61321;Laerm;17737;52.586;13.284;2023-02-28T04:27:15;55.43;51.21;67.46;;
61321;Laerm;17737;52.586;13.284;2023-02-28T04:29:43;53.58;51.27;68.62;;
61321;Laerm;17737;52.586;13.284;2023-02-28T04:32:12;54.94;51.05;60.46;;
61321;Laerm;17737;52.586;13.284;2023-02-28T04:34:40;55.07;51.40;67.67;;
61321;Laerm;17737;52.586;13.284;2023-02-28T04:37:08;53.21;51.17;58.25;;
61321;Laerm;17737;52.586;13.284;2023-02-28T04:39:41;56.35;51.37;65.97;;
61321;Laerm;17737;52.586;13.284;2023-02-28T04:42:09;53.75;51.22;62.90;;
61321;Laerm;17737;52.586;13.284;2023-02-28T04:44:39;54.05;51.22;60.30;;
61321;Laerm;17737;52.586;13.284;2023-02-28T04:47:07;54.39;51.15;62.19;;
61321;Laerm;17737;52.586;13.284;2023-02-28T04:49:35;55.61;51.31;62.34;;
61321;Laerm;17737;52.586;13.284;2023-02-28T04:52:03;54.36;50.84;62.26;;
61321;Laerm;17737;52.586;13.284;2023-02-28T04:54:32;54.92;51.01;62.88;;
61321;Laerm;17737;52.586;13.284;2023-02-28T04:57:00;54.24;51.28;67.57;;
61321;Laerm;17737;52.586;13.284;2023-02-28T04:59:28;55.03;51.32;65.90;;
61321;Laerm;17737;52.586;13.284;2023-02-28T05:01:57;54.54;51.35;60.64;;
61321;Laerm;17737;52.586;13.284;2023-02-28T05:04:25;56.43;51.48;64.37;;
61321;Laerm;17737;52.586;13.284;2023-02-28T05:06:53;55.04;51.07;62.14;;
61321;Laerm;17737;52.586;13.284;2023-02-28T05:09:21;55.73;51.35;64.55;;
61321;Laerm;17737;52.586;13.284;2023-02-28T05:11:49;54.07;51.18;62.09;;
61321;Laerm;17737;52.586;13.284;2023-02-28T05:14:17;55.15;51.01;62.62;;
61321;Laerm;17737;52.586;13.284;2023-02-28T05:16:45;55.87;51.34;62.50;;
61321;Laerm;17737;52.586;13.284;2023-02-28T05:19:15;56.93;51.77;68.43;;
61321;Laerm;17737;52.586;13.284;2023-02-28T05:21:51;55.70;50.77;69.84;;
61321;Laerm;17737;52.586;13.284;2023-02-28T05:24:20;55.24;51.42;63.34;;
61321;Laerm;17737;52.586;13.284;2023-02-28T05:26:52;55.84;51.47;63.48;;
61321;Laerm;17737;52.586;13.284;2023-02-28T05:29:20;55.52;51.30;62.44;;
61321;Laerm;17737;52.586;13.284;2023-02-28T05:31:48;55.10;51.24;62.05;;
61321;Laerm;17737;52.586;13.284;2023-02-28T05:34:18;55.56;51.23;68.65;;
61321;Laerm;17737;52.586;13.284;2023-02-28T05:36:46;56.11;51.29;69.32;;
61321;Laerm;17737;52.586;13.284;2023-02-28T05:39:14;56.32;51.42;63.67;;
61321;Laerm;17737;52.586;13.284;2023-02-28T05:41:43;56.89;51.29;63.70;;
61321;Laerm;17737;52.586;13.284;2023-02-28T05:44:11;56.63;52.03;68.38;;
61321;Laerm;17737;52.586;13.284;2023-02-28T05:46:39;55.38;51.45;62.97;;
61321;Laerm;17737;52.586;13.284;2023-02-28T05:49:07;55.43;51.46;61.80;;
61321;Laerm;17737;52.586;13.284;2023-02-28T05:51:37;54.96;51.53;60.93;;
61321;Laerm;17737;52.586;13.284;2023-02-28T05:54:07;55.22;51.38;62.10;;
61321;Laerm;17737;52.586;13.284;2023-02-28T05:56:35;54.22;51.12;68.72;;
61321;Laerm;17737;52.586;13.284;2023-02-28T05:59:05;56.25;51.26;62.85;;
61321;Laerm;17737;52.586;13.284;2023-02-28T06:01:36;55.11;51.46;60.53;;
61321;Laerm;17737;52.586;13.284;2023-02-28T06:04:09;55.37;51.55;62.39;;
61321;Laerm;17737;52.586;13.284;2023-02-28T06:06:52;54.14;51.19;60.26;;
61321;Laerm;17737;52.586;13.284;2023-02-28T06:09:20;56.26;51.43;63.02;;
61321;Laerm;17737;52.586;13.284;2023-02-28T06:11:48;56.35;51.41;62.62;;
61321;Laerm;17737;52.586;13.284;2023-02-28T06:14:18;55.49;51.36;62.53;;
61321;Laerm;17737;52.586;13.284;2023-02-28T06:16:47;54.96;51.54;60.69;;
61321;Laerm;17737;52.586;13.284;2023-02-28T06:19:15;57.34;51.35;68.62;;
61321;Laerm;17737;52.586;13.284;2023-02-28T06:21:43;57.94;51.75;69.00;;
61321;Laerm;17737;52.586;13.284;2023-02-28T06:24:13;56.68;51.32;64.75;;
61321;Laerm;17737;52.586;13.284;2023-02-28T06:26:41;57.33;51.38;68.85;;
61321;Laerm;17737;52.586;13.284;2023-02-28T06:29:09;57.60;51.32;63.70;;
61321;Laerm;17737;52.586;13.284;2023-02-28T06:31:37;57.17;51.51;64.85;;
61321;Laerm;17737;52.586;13.284;2023-02-28T06:34:05;57.23;51.80;67.58;;
61321;Laerm;17737;52.586;13.284;2023-02-28T06:36:33;57.88;51.66;65.47;;
61321;Laerm;17737;52.586;13.284;2023-02-28T06:39:01;54.72;51.24;70.33;;
61321;Laerm;17737;52.586;13.284;2023-02-28T06:41:31;54.63;51.21;63.21;;
61321;Laerm;17737;52.586;13.284;2023-02-28T06:44:21;57.13;51.40;63.97;;
61321;Laerm;17737;52.586;13.284;2023-02-28T06:46:49;56.61;51.50;68.46;;
61321;Laerm;17737;52.586;13.284;2023-02-28T06:49:19;57.61;51.35;64.37;;
61321;Laerm;17737;52.586;13.284;2023-02-28T06:51:47;56.57;51.94;62.77;;
61321;Laerm;17737;52.586;13.284;2023-02-28T06:54:15;57.52;51.71;65.01;;
61321;Laerm;17737;52.586;13.284;2023-02-28T06:56:44;57.10;51.77;65.22;;
61321;Laerm;17737;52.586;13.284;2023-02-28T06:59:13;56.20;51.56;62.48;;
61321;Laerm;17737;52.586;13.284;2023-02-28T07:01:41;57.60;51.79;67.94;;
61321;Laerm;17737;52.586;13.284;2023-02-28T07:04:09;57.49;51.97;63.64;;
61321;Laerm;17737;52.586;13.284;2023-02-28T07:06:37;56.44;51.63;62.49;;
61321;Laerm;17737;52.586;13.284;2023-02-28T07:09:05;57.66;51.75;73.02;;
61321;Laerm;17737;52.586;13.284;2023-02-28T07:11:33;57.72;51.71;70.39;;
61321;Laerm;17737;52.586;13.284;2023-02-28T07:14:03;55.50;51.63;61.02;;
61321;Laerm;17737;52.586;13.284;2023-02-28T07:16:31;57.88;51.88;68.57;;
61321;Laerm;17737;52.586;13.284;2023-02-28T07:18:59;56.04;51.36;62.09;;
61321;Laerm;17737;52.586;13.284;2023-02-28T07:21:27;56.16;51.34;63.99;;
61321;Laerm;17737;52.586;13.284;2023-02-28T07:23:56;56.58;51.34;68.01;;
61321;Laerm;17737;52.586;13.284;2023-02-28T07:26:24;57.12;51.79;68.99;;
61321;Laerm;17737;52.586;13.284;2023-02-28T07:28:52;57.62;51.55;68.81;;
61321;Laerm;17737;52.586;13.284;2023-02-28T07:31:22;56.04;51.48;67.96;;
61321;Laerm;17737;52.586;13.284;2023-02-28T07:33:50;56.82;51.68;66.08;;
61321;Laerm;17737;52.586;13.284;2023-02-28T07:36:18;55.03;51.12;64.52;;
61321;Laerm;17737;52.586;13.284;2023-02-28T07:38:47;56.19;51.61;65.41;;
61321;Laerm;17737;52.586;13.284;2023-02-28T07:41:19;56.56;51.66;63.78;;
61321;Laerm;17737;52.586;13.284;2023-02-28T07:43:48;56.68;51.29;62.72;;
61321;Laerm;17737;52.586;13.284;2023-02-28T07:46:19;56.67;51.46;67.95;;
61321;Laerm;17737;52.586;13.284;2023-02-28T07:48:49;57.14;52.19;63.19;;
61321;Laerm;17737;52.586;13.284;2023-02-28T07:51:17;57.91;51.61;66.91;;
61321;Laerm;17737;52.586;13.284;2023-02-28T07:53:45;56.42;51.41;63.96;;
61321;Laerm;17737;52.586;13.284;2023-02-28T07:56:13;55.38;51.38;66.45;;
61321;Laerm;17737;52.586;13.284;2023-02-28T07:58:41;56.77;50.97;72.02;;
61321;Laerm;17737;52.586;13.284;2023-02-28T08:01:10;55.28;51.24;63.13;;
61321;Laerm;17737;52.586;13.284;2023-02-28T08:03:39;56.74;51.65;67.08;;
61321;Laerm;17737;52.586;13.284;2023-02-28T08:06:16;57.68;51.22;68.70;;
61321;Laerm;17737;52.586;13.284;2023-02-28T08:08:45;55.05;51.50;61.72;;
61321;Laerm;17737;52.586;13.284;2023-02-28T08:11:14;54.41;51.18;67.78;;
61321;Laerm;17737;52.586;13.284;2023-02-28T08:13:42;55.09;51.53;60.34;;
61321;Laerm;17737;52.586;13.284;2023-02-28T08:16:12;55.71;51.48;63.85;;
61321;Laerm;17737;52.586;13.284;2023-02-28T08:18:43;54.92;51.16;68.47;;
61321;Laerm;17737;52.586;13.284;2023-02-28T08:21:13;55.57;51.47;60.57;;
61321;Laerm;17737;52.586;13.284;2023-02-28T08:23:41;54.62;50.94;67.49;;
61321;Laerm;17737;52.586;13.284;2023-02-28T08:26:09;54.97;51.30;61.64;;
61321;Laerm;17737;52.586;13.284;2023-02-28T08:28:37;57.14;51.34;67.69;;
61321;Laerm;17737;52.586;13.284;2023-02-28T08:31:11;55.26;51.19;63.33;;
61321;Laerm;17737;52.586;13.284;2023-02-28T08:33:40;54.37;50.85;61.50;;
61321;Laerm;17737;52.586;13.284;2023-02-28T08:36:09;55.09;51.09;65.23;;
61321;Laerm;17737;52.586;13.284;2023-02-28T08:38:39;56.40;50.84;66.61;;
61321;Laerm;17737;52.586;13.284;2023-02-28T08:41:10;55.07;50.95;65.38;;
61321;Laerm;17737;52.586;13.284;2023-02-28T08:43:40;55.61;51.15;62.66;;
61321;Laerm;17737;52.586;13.284;2023-02-28T08:46:11;55.19;51.07;64.85;;
61321;Laerm;17737;52.586;13.284;2023-02-28T08:48:40;56.95;51.46;64.32;;
61321;Laerm;17737;52.586;13.284;2023-02-28T08:51:11;55.04;51.10;61.05;;
61321;Laerm;17737;52.586;13.284;2023-02-28T08:53:41;56.09;51.43;62.09;;
61321;Laerm;17737;52.586;13.284;2023-02-28T08:56:11;54.14;51.01;64.14;;
61321;Laerm;17737;52.586;13.284;2023-02-28T08:58:40;55.11;51.36;68.39;;
61321;Laerm;17737;52.586;13.284;2023-02-28T09:01:10;54.66;50.69;61.10;;
61321;Laerm;17737;52.586;13.284;2023-02-28T09:03:40;55.31;51.25;65.63;;
61321;Laerm;17737;52.586;13.284;2023-02-28T09:06:10;54.88;50.99;68.08;;
61321;Laerm;17737;52.586;13.284;2023-02-28T09:08:40;55.17;51.08;64.97;;
61321;Laerm;17737;52.586;13.284;2023-02-28T09:11:09;54.65;51.03;60.26;;
61321;Laerm;17737;52.586;13.284;2023-02-28T09:13:38;54.58;50.93;65.43;;
61321;Laerm;17737;52.586;13.284;2023-02-28T09:16:08;55.87;51.01;63.64;;
61321;Laerm;17737;52.586;13.284;2023-02-28T09:18:38;54.94;51.18;63.55;;
61321;Laerm;17737;52.586;13.284;2023-02-28T09:21:09;53.07;50.55;65.11;;
61321;Laerm;17737;52.586;13.284;2023-02-28T09:23:38;55.39;51.13;69.10;;
61321;Laerm;17737;52.586;13.284;2023-02-28T09:26:12;53.70;50.59;61.00;;
61321;Laerm;17737;52.586;13.284;2023-02-28T09:28:40;53.72;50.88;62.54;;
61321;Laerm;17737;52.586;13.284;2023-02-28T09:31:13;54.26;50.98;59.45;;
61321;Laerm;17737;52.586;13.284;2023-02-28T09:33:41;52.92;50.81;58.83;;
61321;Laerm;17737;52.586;13.284;2023-02-28T09:36:09;53.56;50.81;60.21;;
61321;Laerm;17737;52.586;13.284;2023-02-28T09:38:37;54.24;51.05;63.66;;
61321;Laerm;17737;52.586;13.284;2023-02-28T09:41:15;53.22;51.01;59.61;;
61321;Laerm;17737;52.586;13.284;2023-02-28T09:43:47;54.82;51.06;60.43;;
61321;Laerm;17737;52.586;13.284;2023-02-28T09:46:29;53.46;50.85;61.26;;
61321;Laerm;17737;52.586;13.284;2023-02-28T09:49:02;54.05;51.09;59.82;;
61321;Laerm;17737;52.586;13.284;2023-02-28T09:51:43;53.74;50.88;61.56;;
61321;Laerm;17737;52.586;13.284;2023-02-28T09:54:17;55.17;50.88;66.02;;
61321;Laerm;17737;52.586;13.284;2023-02-28T09:56:51;54.52;50.82;61.73;;
61321;Laerm;17737;52.586;13.284;2023-02-28T09:59:41;54.68;50.87;61.99;;
61321;Laerm;17737;52.586;13.284;2023-02-28T10:02:49;54.34;51.12;65.41;;
61321;Laerm;17737;52.586;13.284;2023-02-28T10:05:26;54.54;51.12;60.75;;
61321;Laerm;17737;52.586;13.284;2023-02-28T10:08:05;55.12;50.86;62.95;;
61321;Laerm;17737;52.586;13.284;2023-02-28T10:10:40;55.62;50.97;61.39;;
61321;Laerm;17737;52.586;13.284;2023-02-28T10:13:22;55.10;51.09;61.00;;
61321;Laerm;17737;52.586;13.284;2023-02-28T10:15:58;55.12;50.78;62.61;;
61321;Laerm;17737;52.586;13.284;2023-02-28T10:18:39;54.54;50.79;61.81;;
61321;Laerm;17737;52.586;13.284;2023-02-28T10:21:20;53.72;50.89;60.70;;
61321;Laerm;17737;52.586;13.284;2023-02-28T10:23:56;54.73;51.13;62.39;;
61321;Laerm;17737;52.586;13.284;2023-02-28T10:26:28;54.38;50.83;63.41;;
61321;Laerm;17737;52.586;13.284;2023-02-28T10:29:00;57.74;51.23;70.22;;
61321;Laerm;17737;52.586;13.284;2023-02-28T10:31:29;54.73;51.06;61.85;;
61321;Laerm;17737;52.586;13.284;2023-02-28T10:33:59;54.08;50.90;61.24;;
61321;Laerm;17737;52.586;13.284;2023-02-28T10:36:28;54.66;50.91;61.58;;
61321;Laerm;17737;52.586;13.284;2023-02-28T10:38:57;54.42;51.22;64.30;;
61321;Laerm;17737;52.586;13.284;2023-02-28T10:41:29;54.40;50.66;65.30;;
61321;Laerm;17737;52.586;13.284;2023-02-28T10:44:21;54.57;50.84;62.32;;
61321;Laerm;17737;52.586;13.284;2023-02-28T10:46:50;55.12;51.04;76.03;;
61321;Laerm;17737;52.586;13.284;2023-02-28T10:49:24;55.28;51.01;61.38;;
61321;Laerm;17737;52.586;13.284;2023-02-28T10:51:57;54.49;50.89;64.61;;
61321;Laerm;17737;52.586;13.284;2023-02-28T10:54:32;53.97;51.04;62.35;;
61321;Laerm;17737;52.586;13.284;2023-02-28T10:57:18;53.49;50.87;58.71;;
61321;Laerm;17737;52.586;13.284;2023-02-28T10:59:51;53.71;50.98;64.76;;
61321;Laerm;17737;52.586;13.284;2023-02-28T11:02:32;54.38;51.22;61.89;;
61321;Laerm;17737;52.586;13.284;2023-02-28T11:05:02;56.13;51.28;64.14;;
61321;Laerm;17737;52.586;13.284;2023-02-28T11:07:30;54.36;51.20;61.69;;
61321;Laerm;17737;52.586;13.284;2023-02-28T11:10:20;53.81;51.00;59.97;;
61321;Laerm;17737;52.586;13.284;2023-02-28T11:12:48;54.50;50.85;62.21;;
61321;Laerm;17737;52.586;13.284;2023-02-28T11:15:24;53.92;51.14;59.11;;
61321;Laerm;17737;52.586;13.284;2023-02-28T11:17:55;55.66;51.07;63.88;;
61321;Laerm;17737;52.586;13.284;2023-02-28T11:20:29;53.82;50.88;59.31;;
61321;Laerm;17737;52.586;13.284;2023-02-28T11:23:01;54.40;50.68;59.74;;
61321;Laerm;17737;52.586;13.284;2023-02-28T11:25:32;53.03;50.83;61.12;;
61321;Laerm;17737;52.586;13.284;2023-02-28T11:28:04;55.11;51.41;62.69;;
61321;Laerm;17737;52.586;13.284;2023-02-28T11:30:38;60.63;51.34;80.60;;
61321;Laerm;17737;52.586;13.284;2023-02-28T11:33:27;54.19;51.04;61.12;;
61321;Laerm;17737;52.586;13.284;2023-02-28T11:36:10;55.81;51.20;74.99;;
61321;Laerm;17737;52.586;13.284;2023-02-28T11:38:38;54.07;50.95;59.09;;
61321;Laerm;17737;52.586;13.284;2023-02-28T11:41:30;53.41;50.77;61.25;;
61321;Laerm;17737;52.586;13.284;2023-02-28T11:44:26;55.20;51.18;66.67;;
61321;Laerm;17737;52.586;13.284;2023-02-28T11:47:06;54.48;50.77;68.38;;
61321;Laerm;17737;52.586;13.284;2023-02-28T11:49:48;53.87;50.85;75.62;;
61321;Laerm;17737;52.586;13.284;2023-02-28T11:52:30;53.70;50.79;66.83;;
61321;Laerm;17737;52.586;13.284;2023-02-28T11:55:17;54.45;51.30;59.39;;
61321;Laerm;17737;52.586;13.284;2023-02-28T11:58:22;54.58;50.91;61.05;;
61321;Laerm;17737;52.586;13.284;2023-02-28T12:01:11;54.81;50.84;63.51;;
61321;Laerm;17737;52.586;13.284;2023-02-28T12:03:59;54.37;50.67;65.80;;
61321;Laerm;17737;52.586;13.284;2023-02-28T12:06:40;54.81;51.01;65.25;;
61321;Laerm;17737;52.586;13.284;2023-02-28T12:09:32;54.56;51.04;63.61;;
61321;Laerm;17737;52.586;13.284;2023-02-28T12:12:26;55.27;51.10;64.00;;
61321;Laerm;17737;52.586;13.284;2023-02-28T12:15:35;54.56;50.77;61.05;;
61321;Laerm;17737;52.586;13.284;2023-02-28T12:18:27;55.07;51.42;63.36;;
61321;Laerm;17737;52.586;13.284;2023-02-28T12:21:12;54.55;50.87;62.72;;
61321;Laerm;17737;52.586;13.284;2023-02-28T12:24:14;54.19;50.88;59.65;;
61321;Laerm;17737;52.586;13.284;2023-02-28T12:26:49;54.00;50.91;60.06;;
61321;Laerm;17737;52.586;13.284;2023-02-28T12:29:26;54.43;50.98;69.11;;
61321;Laerm;17737;52.586;13.284;2023-02-28T12:32:03;57.13;51.07;68.30;;
61321;Laerm;17737;52.586;13.284;2023-02-28T12:34:38;54.46;50.93;62.92;;
61321;Laerm;17737;52.586;13.284;2023-02-28T12:37:19;55.38;51.20;62.87;;
61321;Laerm;17737;52.586;13.284;2023-02-28T12:39:55;54.61;50.82;61.24;;
61321;Laerm;17737;52.586;13.284;2023-02-28T12:42:30;53.94;50.72;60.37;;
61321;Laerm;17737;52.586;13.284;2023-02-28T12:45:07;54.37;50.95;61.50;;
61321;Laerm;17737;52.586;13.284;2023-02-28T12:47:44;55.43;51.00;64.07;;
61321;Laerm;17737;52.586;13.284;2023-02-28T12:50:15;54.91;51.03;61.17;;
61321;Laerm;17737;52.586;13.284;2023-02-28T12:52:54;55.09;50.74;62.24;;
61321;Laerm;17737;52.586;13.284;2023-02-28T12:55:35;53.83;50.95;59.73;;
61321;Laerm;17737;52.586;13.284;2023-02-28T12:58:16;54.07;50.84;58.72;;
61321;Laerm;17737;52.586;13.284;2023-02-28T13:01:15;54.62;50.90;66.93;;
61321;Laerm;17737;52.586;13.284;2023-02-28T13:04:19;53.48;50.66;60.20;;
61321;Laerm;17737;52.586;13.284;2023-02-28T13:07:18;54.34;51.15;61.09;;
61321;Laerm;17737;52.586;13.284;2023-02-28T13:09:56;54.67;51.06;59.78;;
61321;Laerm;17737;52.586;13.284;2023-02-28T13:12:26;54.01;50.60;65.45;;
61321;Laerm;17737;52.586;13.284;2023-02-28T13:15:06;53.56;50.98;64.03;;
61321;Laerm;17737;52.586;13.284;2023-02-28T13:17:40;54.26;50.84;60.73;;
61321;Laerm;17737;52.586;13.284;2023-02-28T13:20:17;54.66;51.08;61.89;;
61321;Laerm;17737;52.586;13.284;2023-02-28T13:22:48;54.76;50.97;65.95;;
61321;Laerm;17737;52.586;13.284;2023-02-28T13:25:53;54.64;51.10;61.64;;
61321;Laerm;17737;52.586;13.284;2023-02-28T13:28:58;55.32;51.03;65.20;;
61321;Laerm;17737;52.586;13.284;2023-02-28T13:31:27;56.02;51.35;61.85;;
61321;Laerm;17737;52.586;13.284;2023-02-28T13:34:14;54.63;50.85;64.21;;
61321;Laerm;17737;52.586;13.284;2023-02-28T13:36:42;55.01;50.92;62.12;;
61321;Laerm;17737;52.586;13.284;2023-02-28T13:39:47;54.66;50.98;60.42;;
61321;Laerm;17737;52.586;13.284;2023-02-28T13:42:33;55.02;50.72;61.75;;
61321;Laerm;17737;52.586;13.284;2023-02-28T13:45:25;54.53;51.11;62.06;;
61321;Laerm;17737;52.586;13.284;2023-02-28T13:47:59;54.52;51.25;61.38;;
61321;Laerm;17737;52.586;13.284;2023-02-28T13:50:32;53.74;50.85;59.86;;
61321;Laerm;17737;52.586;13.284;2023-02-28T13:56:34;55.15;50.89;61.54;;
61321;Laerm;17737;52.586;13.284;2023-02-28T13:59:29;55.60;50.83;65.33;;
61321;Laerm;17737;52.586;13.284;2023-02-28T14:02:25;54.46;50.50;61.37;;
61321;Laerm;17737;52.586;13.284;2023-02-28T14:05:05;54.74;51.20;66.58;;
61321;Laerm;17737;52.586;13.284;2023-02-28T14:07:48;55.85;51.31;61.21;;
61321;Laerm;17737;52.586;13.284;2023-02-28T14:10:27;54.60;51.09;60.59;;
61321;Laerm;17737;52.586;13.284;2023-02-28T14:13:03;54.16;50.99;60.66;;
61321;Laerm;17737;52.586;13.284;2023-02-28T14:15:47;55.49;50.94;64.06;;
61321;Laerm;17737;52.586;13.284;2023-02-28T14:18:25;53.86;51.22;60.88;;